Time;durP1;ratioP1;P1;durP2;ratioP2;P2;SDS_P1;SDS_P2;PMS_P1;PMS_P2;Temp;Humidity;BMP_temperature;BMP_pressure;BME280_temperature;BME280_humidity;BME280_pressure;Samples;Min_cycle;Max_cycle;Signal;HPM_P1;HPM_P2
2023/11/11 00:00:46;;;;;;;7.77;6.07;;;8.90;99.90;;;;;;4994699;28;20849;-72
2023/11/11 00:03:14;;;;;;;7.97;7.17;;;8.80;99.90;;;;;;4994722;28;20205;-73
2023/11/11 00:05:42;;;;;;;14.67;9.00;;;8.90;99.90;;;;;;4995203;28;20437;-72
2023/11/11 00:08:09;;;;;;;9.37;8.10;;;8.80;99.90;;;;;;4995246;28;20452;-72
2023/11/11 00:10:36;;;;;;;14.50;9.57;;;8.80;99.90;;;;;;4995031;28;20468;-72
2023/11/11 00:13:04;;;;;;;13.00;11.60;;;8.70;99.90;;;;;;4995956;28;20795;-72
2023/11/11 00:15:33;;;;;;;14.10;10.07;;;8.70;99.90;;;;;;4995347;28;20534;-72
2023/11/11 00:18:00;;;;;;;17.23;13.13;;;8.70;99.90;;;;;;4993766;28;20953;-72
2023/11/11 00:20:28;;;;;;;19.07;14.40;;;8.70;99.90;;;;;;4995226;28;20471;-72
2023/11/11 00:22:55;;;;;;;19.50;14.90;;;8.70;99.90;;;;;;4996041;28;20522;-72
2023/11/11 00:25:23;;;;;;;21.27;15.00;;;8.80;99.90;;;;;;4996860;28;20465;-72
2023/11/11 00:27:50;;;;;;;22.27;17.70;;;8.80;99.90;;;;;;4997126;28;20448;-72
2023/11/11 00:30:17;;;;;;;25.80;17.80;;;8.70;99.90;;;;;;4995747;28;20479;-72
2023/11/11 00:32:50;;;;;;;23.03;19.03;;;8.60;99.90;;;;;;4996790;28;20452;-72
2023/11/11 00:35:18;;;;;;;24.30;19.67;;;8.60;99.90;;;;;;4996273;28;20436;-72
2023/11/11 00:37:46;;;;;;;23.80;20.77;;;8.70;99.90;;;;;;4994709;28;20559;-73
2023/11/11 00:40:15;;;;;;;26.27;18.67;;;8.70;99.90;;;;;;4995467;28;20463;-72
2023/11/11 00:42:41;;;;;;;23.60;19.60;;;8.70;99.90;;;;;;4995200;28;20447;-73
2023/11/11 00:45:09;;;;;;;25.30;20.80;;;8.70;99.90;;;;;;4993420;28;20964;-72
2023/11/11 00:47:36;;;;;;;28.00;20.73;;;8.70;99.90;;;;;;4993504;28;20459;-72
2023/11/11 00:50:05;;;;;;;27.50;21.57;;;8.70;99.90;;;;;;4994771;28;20542;-72
2023/11/11 00:52:33;;;;;;;28.20;22.80;;;8.70;99.90;;;;;;4994324;28;20452;-73
2023/11/11 00:55:02;;;;;;;29.90;23.50;;;8.80;99.90;;;;;;4995160;28;20452;-73
2023/11/11 00:57:28;;;;;;;34.87;26.43;;;8.70;99.90;;;;;;4993796;28;20492;-73
2023/11/11 00:59:55;;;;;;;37.30;26.70;;;8.70;99.90;;;;;;4994782;28;20472;-72
2023/11/11 01:02:23;;;;;;;33.67;26.80;;;8.70;99.90;;;;;;4994222;28;20451;-72
2023/11/11 01:04:50;;;;;;;34.50;27.17;;;8.70;99.90;;;;;;4993531;28;20487;-72
2023/11/11 01:07:16;;;;;;;33.30;26.93;;;8.60;99.90;;;;;;4994581;28;20449;-73
2023/11/11 01:09:43;;;;;;;36.80;27.30;;;8.70;99.90;;;;;;4995191;28;20488;-72
2023/11/11 01:12:12;;;;;;;33.67;26.23;;;8.70;99.90;;;;;;4995392;28;20456;-72
2023/11/11 01:14:39;;;;;;;35.80;25.43;;;8.80;99.90;;;;;;4997286;28;20484;-73
2023/11/11 01:17:06;;;;;;;38.20;27.37;;;8.70;99.90;;;;;;4995175;28;20515;-72
2023/11/11 01:19:33;;;;;;;33.70;27.03;;;8.80;99.90;;;;;;5004986;28;20477;-72
2023/11/11 01:22:01;;;;;;;30.57;24.90;;;8.80;99.90;;;;;;4982387;28;20544;-72
2023/11/11 01:24:28;;;;;;;36.00;26.50;;;8.80;99.90;;;;;;4983104;28;20453;-72
2023/11/11 01:26:55;;;;;;;31.23;25.90;;;8.70;99.90;;;;;;4981793;28;20456;-73
2023/11/11 01:29:23;;;;;;;41.40;28.07;;;8.60;99.90;;;;;;4980034;28;20485;-72
2023/11/11 01:31:50;;;;;;;33.03;26.20;;;8.60;99.90;;;;;;4979167;28;20449;-73
2023/11/11 01:34:17;;;;;;;33.00;25.70;;;8.50;99.90;;;;;;4980184;28;20456;-73
2023/11/11 01:36:43;;;;;;;33.43;25.10;;;8.50;99.90;;;;;;4980129;28;20453;-73
2023/11/11 01:39:10;;;;;;;27.33;24.00;;;8.50;99.90;;;;;;4979691;28;20480;-72
2023/11/11 01:41:37;;;;;;;28.23;22.30;;;8.50;99.90;;;;;;4979558;28;20448;-73
2023/11/11 01:44:04;;;;;;;30.50;23.30;;;8.50;99.90;;;;;;4979119;28;20457;-73
2023/11/11 01:46:32;;;;;;;27.00;21.97;;;8.50;99.90;;;;;;4977934;28;20540;-73
2023/11/11 01:49:00;;;;;;;25.77;20.50;;;8.40;99.90;;;;;;4979251;28;20915;-72
2023/11/11 01:51:28;;;;;;;27.30;20.20;;;8.40;99.90;;;;;;4978976;28;20460;-72
2023/11/11 01:53:56;;;;;;;26.40;21.97;;;8.40;99.90;;;;;;4979103;28;20445;-73
2023/11/11 01:56:24;;;;;;;26.70;19.63;;;8.30;99.90;;;;;;4978907;28;20449;-72
2023/11/11 01:58:51;;;;;;;25.20;19.67;;;8.30;99.90;;;;;;4978455;28;20499;-72
2023/11/11 02:01:18;;;;;;;27.03;20.73;;;8.30;99.90;;;;;;4979171;28;20449;-73
2023/11/11 02:03:48;;;;;;;24.17;20.17;;;8.30;99.90;;;;;;4978614;28;20453;-73
2023/11/11 02:06:15;;;;;;;21.70;19.10;;;8.30;99.90;;;;;;4977060;28;20449;-73
2023/11/11 02:08:43;;;;;;;26.20;18.43;;;8.30;99.90;;;;;;4977882;28;20460;-72
2023/11/11 02:11:10;;;;;;;36.17;20.70;;;8.30;99.90;;;;;;4978254;28;20488;-72
2023/11/11 02:13:37;;;;;;;27.07;18.60;;;8.30;99.90;;;;;;4976445;28;20883;-73
2023/11/11 02:16:06;;;;;;;21.20;16.70;;;8.30;99.90;;;;;;4976867;28;20445;-73
2023/11/11 02:18:33;;;;;;;21.27;16.43;;;8.30;99.90;;;;;;4977580;28;20464;-72
2023/11/11 02:21:01;;;;;;;21.50;15.40;;;8.30;99.90;;;;;;4977438;28;20903;-73
2023/11/11 02:23:34;;;;;;;21.00;14.90;;;8.30;99.90;;;;;;4977388;28;20472;-72
2023/11/11 02:26:02;;;;;;;18.13;13.93;;;8.30;99.90;;;;;;4977718;28;20430;-72
2023/11/11 02:28:29;;;;;;;19.53;15.37;;;8.30;99.90;;;;;;4976570;28;20486;-72
2023/11/11 02:30:56;;;;;;;17.10;13.90;;;8.30;99.90;;;;;;4976276;28;20515;-73
2023/11/11 02:33:24;;;;;;;21.30;15.60;;;8.20;99.90;;;;;;4977257;28;20467;-73
2023/11/11 02:35:51;;;;;;;20.77;15.03;;;8.20;99.90;;;;;;4977379;28;20449;-73
2023/11/11 02:38:18;;;;;;;18.40;14.20;;;8.20;99.90;;;;;;4977383;28;20520;-72
2023/11/11 02:40:46;;;;;;;18.27;15.10;;;8.20;99.90;;;;;;4977323;28;20461;-72
2023/11/11 02:43:13;;;;;;;21.37;15.57;;;8.10;99.90;;;;;;4977081;28;20452;-73
2023/11/11 02:45:39;;;;;;;23.37;15.60;;;8.10;99.90;;;;;;4977167;28;20460;-73
2023/11/11 02:48:07;;;;;;;25.83;15.50;;;8.20;99.90;;;;;;4976202;28;20453;-73
2023/11/11 02:50:34;;;;;;;20.30;14.37;;;8.20;99.90;;;;;;4977101;28;20900;-72
2023/11/11 02:53:01;;;;;;;22.73;15.10;;;8.20;99.90;;;;;;4975846;28;20473;-72
2023/11/11 02:55:28;;;;;;;20.73;14.53;;;8.20;99.90;;;;;;4976115;28;21042;-73
2023/11/11 02:57:56;;;;;;;18.70;13.93;;;8.20;99.90;;;;;;4977202;28;20456;-73
2023/11/11 03:00:23;;;;;;;22.93;14.70;;;8.20;99.90;;;;;;4977606;28;20971;-72
2023/11/11 03:02:50;;;;;;;18.13;14.93;;;8.20;99.90;;;;;;4978805;28;20822;-72
2023/11/11 03:05:18;;;;;;;25.43;15.10;;;8.20;99.90;;;;;;4977740;28;20454;-72
2023/11/11 03:07:45;;;;;;;19.93;12.83;;;8.10;99.90;;;;;;4979648;28;20827;-73
2023/11/11 03:10:13;;;;;;;18.10;13.63;;;8.10;99.90;;;;;;4978351;28;20484;-72
2023/11/11 03:12:41;;;;;;;15.70;12.40;;;8.20;99.90;;;;;;4976770;28;20939;-73
2023/11/11 03:15:11;;;;;;;16.73;12.50;;;8.20;99.90;;;;;;4976824;28;20508;-73
2023/11/11 03:17:38;;;;;;;19.30;13.60;;;8.20;99.90;;;;;;4976914;28;20520;-73
2023/11/11 03:20:05;;;;;;;18.90;12.73;;;8.20;99.90;;;;;;4976525;28;20465;-72
2023/11/11 03:22:33;;;;;;;20.77;12.27;;;8.20;99.90;;;;;;4978067;28;20453;-73
2023/11/11 03:25:00;;;;;;;18.37;12.13;;;8.20;99.90;;;;;;4979155;28;20484;-72
2023/11/11 03:27:27;;;;;;;17.90;11.47;;;8.20;99.90;;;;;;4977047;28;20464;-72
2023/11/11 03:29:54;;;;;;;15.63;10.27;;;8.10;99.90;;;;;;4976961;28;21002;-72
2023/11/11 03:32:22;;;;;;;15.43;10.40;;;8.10;99.90;;;;;;4977906;28;20448;-72
2023/11/11 03:34:49;;;;;;;17.13;10.50;;;8.20;99.90;;;;;;4984172;28;20429;-72
2023/11/11 03:37:15;;;;;;;15.10;9.60;;;8.20;99.90;;;;;;4986721;28;20453;-73
2023/11/11 03:39:43;;;;;;;11.50;8.30;;;8.10;99.90;;;;;;4980681;28;20886;-72
2023/11/11 03:42:11;;;;;;;12.40;8.20;;;8.10;99.90;;;;;;4979726;28;20449;-73
2023/11/11 03:44:38;;;;;;;11.30;7.87;;;8.10;99.90;;;;;;4977733;28;20481;-72
2023/11/11 03:47:06;;;;;;;14.20;8.70;;;8.10;99.90;;;;;;4976727;28;20461;-73
2023/11/11 03:49:34;;;;;;;12.03;7.70;;;8.20;99.90;;;;;;4976778;28;20995;-72
2023/11/11 03:52:02;;;;;;;11.10;6.10;;;8.20;99.90;;;;;;4976834;28;20449;-73
2023/11/11 03:54:29;;;;;;;10.50;8.30;;;8.20;99.90;;;;;;4975673;28;20456;-73
2023/11/11 03:56:56;;;;;;;8.83;6.80;;;8.20;99.90;;;;;;4976151;28;20451;-73
2023/11/11 03:59:23;;;;;;;8.90;6.20;;;8.20;99.90;;;;;;4977214;28;20866;-72
2023/11/11 04:01:51;;;;;;;11.37;5.43;;;8.20;99.90;;;;;;4977323;28;20449;-73
2023/11/11 04:04:18;;;;;;;10.40;5.60;;;8.20;99.90;;;;;;4976402;28;20464;-72
2023/11/11 04:06:46;;;;;;;7.80;6.17;;;8.20;99.90;;;;;;4976964;28;20449;-73
2023/11/11 04:09:13;;;;;;;9.90;6.10;;;8.20;99.90;;;;;;4976476;28;20477;-72
2023/11/11 04:11:40;;;;;;;10.07;5.30;;;8.20;99.90;;;;;;4976078;28;21093;-73
2023/11/11 04:14:07;;;;;;;8.03;5.43;;;8.20;99.90;;;;;;4976140;28;20445;-73
2023/11/11 04:16:35;;;;;;;7.57;5.60;;;8.20;99.90;;;;;;4976705;28;20500;-73
2023/11/11 04:19:01;;;;;;;8.20;5.37;;;8.20;99.90;;;;;;4976506;28;20979;-72
2023/11/11 04:21:28;;;;;;;11.10;6.47;;;8.20;99.90;;;;;;4976735;28;20451;-73
2023/11/11 04:23:56;;;;;;;4.60;4.20;;;8.20;99.90;;;;;;4977352;28;20441;-73
2023/11/11 04:26:23;;;;;;;5.77;4.67;;;8.20;99.90;;;;;;4976996;28;20460;-73
2023/11/11 04:28:50;;;;;;;5.20;4.27;;;8.20;99.90;;;;;;4976493;28;20469;-72
2023/11/11 04:31:17;;;;;;;9.47;4.37;;;8.10;99.90;;;;;;4976005;28;20481;-73
2023/11/11 04:33:44;;;;;;;5.77;4.47;;;8.20;99.90;;;;;;4975524;28;20445;-73
2023/11/11 04:36:11;;;;;;;8.33;4.43;;;8.20;99.90;;;;;;4976040;28;20449;-73
2023/11/11 04:38:38;;;;;;;4.93;3.90;;;8.30;99.90;;;;;;4959662;28;20874;-72
2023/11/11 04:41:06;;;;;;;6.67;4.00;;;8.30;99.90;;;;;;4976899;28;20453;-73
2023/11/11 04:43:34;;;;;;;5.90;3.93;;;8.30;99.90;;;;;;4976291;28;20592;-73
2023/11/11 04:46:01;;;;;;;5.27;3.40;;;8.30;99.90;;;;;;4975792;28;20543;-73
2023/11/11 04:48:27;;;;;;;7.83;3.63;;;8.30;99.90;;;;;;4975445;28;20449;-73
2023/11/11 04:50:55;;;;;;;9.37;4.00;;;8.30;99.90;;;;;;4975650;28;20492;-73
2023/11/11 04:53:22;;;;;;;5.10;3.93;;;8.30;99.90;;;;;;4976081;28;20489;-73
2023/11/11 04:55:49;;;;;;;7.70;3.63;;;8.30;99.90;;;;;;4973540;28;20536;-73
2023/11/11 04:58:17;;;;;;;5.43;3.97;;;8.30;99.90;;;;;;4977336;28;20452;-73
2023/11/11 05:00:45;;;;;;;5.90;4.20;;;8.30;99.90;;;;;;4980534;28;20963;-72
2023/11/11 05:03:12;;;;;;;7.47;3.83;;;8.20;99.90;;;;;;4982229;28;20974;-73
2023/11/11 05:05:39;;;;;;;6.00;3.37;;;8.30;99.90;;;;;;4985835;28;20455;-73
2023/11/11 05:08:07;;;;;;;5.93;3.40;;;8.30;99.90;;;;;;4985382;28;20515;-73
2023/11/11 05:10:34;;;;;;;6.10;3.87;;;8.30;99.90;;;;;;4983462;28;20565;-72
2023/11/11 05:13:08;;;;;;;3.50;3.13;;;8.30;99.90;;;;;;4984476;28;20445;-72
2023/11/11 05:15:42;;;;;;;9.23;3.57;;;8.30;99.90;;;;;;4984498;28;20429;-72
2023/11/11 05:18:09;;;;;;;10.23;4.73;;;8.30;99.90;;;;;;4983731;28;20455;-72
2023/11/11 05:20:36;;;;;;;6.60;4.90;;;8.30;99.90;;;;;;4981416;28;20469;-72
2023/11/11 05:23:03;;;;;;;8.20;6.17;;;8.30;99.90;;;;;;4982820;28;20445;-73
2023/11/11 05:25:30;;;;;;;10.27;6.10;;;8.30;99.90;;;;;;4980720;28;20445;-72
2023/11/11 05:27:57;;;;;;;8.73;6.90;;;8.20;99.90;;;;;;4980829;28;20449;-73
2023/11/11 05:30:25;;;;;;;13.13;6.67;;;8.30;99.90;;;;;;4981129;28;20495;-72
2023/11/11 05:32:53;;;;;;;10.77;6.67;;;8.20;99.90;;;;;;4979475;28;20452;-73
2023/11/11 05:35:20;;;;;;;12.70;7.33;;;8.20;99.90;;;;;;4980376;28;20472;-72
2023/11/11 05:37:48;;;;;;;10.60;6.83;;;8.20;99.90;;;;;;4980508;28;20441;-72
2023/11/11 05:40:18;;;;;;;9.80;7.80;;;8.20;99.90;;;;;;4978470;28;20476;-72
2023/11/11 05:42:46;;;;;;;9.97;6.77;;;8.20;99.90;;;;;;4980147;28;20457;-73
2023/11/11 05:45:16;;;;;;;9.80;6.90;;;8.20;99.90;;;;;;4979222;28;20823;-73
2023/11/11 05:47:43;;;;;;;10.10;6.93;;;8.20;99.90;;;;;;4979822;28;20457;-73
2023/11/11 05:50:13;;;;;;;14.20;6.33;;;8.20;99.90;;;;;;4979386;28;20519;-72
2023/11/11 05:52:40;;;;;;;11.73;8.83;;;8.20;99.90;;;;;;4992094;28;20871;-72
2023/11/11 05:55:08;;;;;;;13.30;6.63;;;8.10;99.90;;;;;;4985435;28;20567;-73
2023/11/11 05:57:37;;;;;;;10.60;6.60;;;8.10;99.90;;;;;;4982368;28;20469;-73
2023/11/11 06:00:05;;;;;;;11.00;6.77;;;8.10;99.90;;;;;;4981289;28;20472;-72
2023/11/11 06:02:32;;;;;;;9.70;7.60;;;8.10;99.90;;;;;;4980951;28;20902;-73
2023/11/11 06:04:59;;;;;;;12.77;7.93;;;8.10;99.90;;;;;;4979616;28;20465;-73
2023/11/11 06:07:27;;;;;;;15.60;8.63;;;8.10;99.90;;;;;;4978974;28;20445;-72
2023/11/11 06:09:54;;;;;;;12.20;8.33;;;8.10;99.90;;;;;;4978801;28;20856;-72
2023/11/11 06:12:21;;;;;;;17.00;10.20;;;8.10;99.90;;;;;;4976972;28;20501;-73
2023/11/11 06:14:49;;;;;;;11.10;8.10;;;8.00;99.90;;;;;;4978265;28;20825;-72
2023/11/11 06:17:16;;;;;;;9.10;7.40;;;8.10;99.90;;;;;;4978601;28;20453;-73
2023/11/11 06:19:43;;;;;;;9.07;7.60;;;8.10;99.90;;;;;;4978330;28;20501;-72
2023/11/11 06:22:10;;;;;;;16.50;6.67;;;8.00;99.90;;;;;;4978143;28;20450;-73
2023/11/11 06:24:39;;;;;;;11.43;7.00;;;8.10;99.90;;;;;;4978207;28;20445;-73
2023/11/11 06:27:08;;;;;;;10.87;7.07;;;8.00;99.90;;;;;;4978261;28;20500;-73
2023/11/11 06:29:36;;;;;;;9.80;7.83;;;8.00;99.90;;;;;;4978329;28;20469;-72
2023/11/11 06:32:03;;;;;;;10.73;7.60;;;8.00;99.90;;;;;;4977743;28;21002;-72
2023/11/11 06:34:30;;;;;;;14.63;6.50;;;8.00;99.90;;;;;;4977652;28;20499;-73
2023/11/11 06:36:57;;;;;;;10.40;6.33;;;7.90;99.90;;;;;;4976583;28;20856;-73
2023/11/11 06:39:24;;;;;;;10.30;7.27;;;7.90;99.90;;;;;;4976082;28;20469;-72
2023/11/11 06:41:52;;;;;;;8.60;7.03;;;7.80;99.90;;;;;;4977566;28;20446;-73
2023/11/11 06:44:20;;;;;;;9.10;7.20;;;7.80;99.90;;;;;;4977811;28;20452;-72
2023/11/11 06:46:46;;;;;;;7.83;6.87;;;7.70;99.90;;;;;;4977120;28;20449;-73
2023/11/11 06:49:13;;;;;;;9.37;6.60;;;7.70;99.90;;;;;;4975728;28;20572;-72
2023/11/11 06:51:40;;;;;;;13.23;8.30;;;7.70;99.90;;;;;;4977258;28;20485;-73
2023/11/11 06:54:09;;;;;;;13.40;8.33;;;7.60;99.90;;;;;;4976983;28;20449;-73
2023/11/11 06:56:36;;;;;;;10.70;8.13;;;7.60;99.90;;;;;;4977113;28;20449;-73
2023/11/11 06:59:04;;;;;;;10.50;7.70;;;7.60;99.90;;;;;;4976423;28;20465;-72
2023/11/11 07:01:30;;;;;;;11.00;7.10;;;7.60;99.90;;;;;;4977176;28;20450;-73
2023/11/11 07:03:57;;;;;;;10.53;7.63;;;7.60;99.90;;;;;;4976913;28;20465;-73
2023/11/11 07:06:24;;;;;;;11.40;8.50;;;7.60;99.90;;;;;;4976703;28;20861;-72
2023/11/11 07:08:52;;;;;;;16.00;9.00;;;7.60;99.90;;;;;;4976461;28;20521;-72
2023/11/11 07:11:20;;;;;;;13.43;10.20;;;7.60;99.90;;;;;;4976357;28;21025;-73
2023/11/11 07:13:46;;;;;;;15.23;9.60;;;7.60;99.90;;;;;;4976740;28;20451;-72
2023/11/11 07:16:20;;;;;;;13.10;9.07;;;7.60;99.90;;;;;;4976254;28;20950;-73
2023/11/11 07:18:48;;;;;;;17.20;9.80;;;7.50;99.90;;;;;;4976564;28;20426;-72
2023/11/11 07:21:22;;;;;;;16.73;10.67;;;7.50;99.90;;;;;;4976254;28;20445;-75
2023/11/11 07:23:49;;;;;;;15.33;10.80;;;7.50;99.90;;;;;;4976443;28;20430;-72
2023/11/11 07:26:17;;;;;;;15.33;10.20;;;7.50;99.90;;;;;;4976461;28;20460;-72
2023/11/11 07:28:45;;;;;;;15.40;11.27;;;7.50;99.90;;;;;;4976743;28;20459;-72
2023/11/11 07:31:12;;;;;;;24.40;12.97;;;7.50;99.90;;;;;;4976387;28;20508;-72
2023/11/11 07:33:40;;;;;;;16.03;10.67;;;7.60;99.90;;;;;;4976095;28;20807;-72
2023/11/11 07:36:08;;;;;;;13.30;9.67;;;7.60;99.90;;;;;;4975972;28;20457;-73
2023/11/11 07:38:35;;;;;;;14.40;10.60;;;7.60;99.90;;;;;;4975543;28;20456;-73
2023/11/11 07:41:02;;;;;;;19.10;11.03;;;7.60;99.90;;;;;;4975587;28;20453;-73
2023/11/11 07:43:29;;;;;;;17.20;11.03;;;7.70;99.90;;;;;;4976091;28;20441;-72
2023/11/11 07:45:56;;;;;;;16.93;10.90;;;7.70;99.90;;;;;;4975029;28;20484;-73
2023/11/11 07:48:24;;;;;;;21.10;11.43;;;7.60;99.90;;;;;;4976093;28;20457;-72
2023/11/11 07:50:52;;;;;;;21.53;11.17;;;7.70;99.90;;;;;;4976322;28;20481;-72
2023/11/11 07:53:19;;;;;;;18.60;10.63;;;7.70;99.90;;;;;;4981239;28;20472;-71
2023/11/11 07:55:46;;;;;;;16.30;10.50;;;7.70;99.90;;;;;;4979546;28;20453;-72
2023/11/11 07:58:13;;;;;;;16.60;10.90;;;7.80;99.90;;;;;;4978640;28;20449;-72
2023/11/11 08:00:41;;;;;;;18.50;10.97;;;7.70;99.90;;;;;;4977092;28;20504;-73
2023/11/11 08:03:07;;;;;;;18.80;10.50;;;7.70;99.90;;;;;;4975690;28;20496;-73
2023/11/11 08:05:35;;;;;;;16.70;10.63;;;7.80;99.90;;;;;;4981513;28;20409;-73
2023/11/11 08:08:03;;;;;;;21.60;10.33;;;7.80;99.90;;;;;;4988660;28;20508;-72
2023/11/11 08:10:31;;;;;;;15.60;11.07;;;7.90;99.90;;;;;;4980311;28;20469;-72
2023/11/11 08:12:58;;;;;;;22.70;10.70;;;7.90;99.90;;;;;;4979377;28;20485;-72
2023/11/11 08:15:27;;;;;;;18.40;10.53;;;7.90;99.90;;;;;;4976722;28;20449;-71
2023/11/11 08:17:54;;;;;;;19.43;9.90;;;7.90;99.90;;;;;;4975765;28;20441;-72
2023/11/11 08:20:21;;;;;;;13.40;8.90;;;7.90;99.90;;;;;;4975404;28;20997;-71
2023/11/11 08:22:48;;;;;;;13.80;8.90;;;8.00;99.90;;;;;;4975719;28;20441;-72
2023/11/11 08:25:19;;;;;;;16.60;9.07;;;8.10;99.90;;;;;;4975956;28;20453;-72
2023/11/11 08:27:46;;;;;;;13.63;9.20;;;8.20;99.90;;;;;;4975766;28;20457;-72
2023/11/11 08:30:13;;;;;;;14.77;10.30;;;8.30;99.90;;;;;;4975709;28;20476;-72
2023/11/11 08:32:42;;;;;;;12.63;8.90;;;8.20;99.90;;;;;;4979824;28;20484;-72
2023/11/11 08:35:15;;;;;;;17.50;10.10;;;8.30;99.90;;;;;;4979960;28;20449;-72
2023/11/11 08:37:42;;;;;;;17.67;9.10;;;8.30;99.90;;;;;;4979397;28;20531;-72
2023/11/11 08:40:12;;;;;;;12.73;9.10;;;8.40;99.90;;;;;;4979028;28;20465;-70
2023/11/11 08:42:41;;;;;;;17.10;9.50;;;8.40;99.90;;;;;;4978940;28;20457;-72
2023/11/11 08:45:09;;;;;;;21.07;9.63;;;8.50;99.90;;;;;;4978930;28;20452;-72
2023/11/11 08:47:37;;;;;;;13.80;9.17;;;8.50;99.90;;;;;;4978463;28;20962;-73
2023/11/11 08:50:06;;;;;;;19.80;9.60;;;8.50;99.90;;;;;;4961495;28;20473;-72
2023/11/11 08:52:33;;;;;;;13.00;9.53;;;8.60;99.90;;;;;;4978653;28;21006;-73
2023/11/11 08:55:00;;;;;;;16.33;9.90;;;8.70;99.90;;;;;;4978112;28;20503;-73
2023/11/11 08:57:27;;;;;;;18.20;9.10;;;8.80;99.90;;;;;;4976544;28;20481;-73
2023/11/11 08:59:55;;;;;;;15.90;10.50;;;8.80;99.90;;;;;;4978181;28;20487;-73
2023/11/11 09:02:21;;;;;;;15.90;9.87;;;8.80;99.90;;;;;;4977256;28;20857;-73
2023/11/11 09:04:48;;;;;;;15.40;9.73;;;8.80;99.90;;;;;;4977808;28;20461;-72
2023/11/11 09:07:16;;;;;;;16.43;9.10;;;8.80;99.90;;;;;;4978168;28;20455;-73
2023/11/11 09:09:43;;;;;;;17.73;9.17;;;8.80;99.90;;;;;;4977990;28;20469;-72
2023/11/11 09:12:09;;;;;;;11.30;8.07;;;8.80;99.90;;;;;;4978087;28;20512;-72
2023/11/11 09:14:36;;;;;;;17.53;8.70;;;8.80;99.90;;;;;;4978304;28;20521;-73
2023/11/11 09:17:05;;;;;;;12.00;9.13;;;8.90;99.90;;;;;;4977959;28;20445;-72
2023/11/11 09:19:32;;;;;;;13.47;9.00;;;8.90;99.90;;;;;;4977973;28;20491;-72
2023/11/11 09:22:01;;;;;;;15.60;9.00;;;9.00;99.90;;;;;;4977671;28;20445;-73
2023/11/11 09:24:28;;;;;;;14.93;8.37;;;9.00;99.90;;;;;;4977841;28;20449;-72
2023/11/11 09:26:56;;;;;;;15.90;8.97;;;9.10;99.90;;;;;;4977986;28;20445;-73
2023/11/11 09:29:23;;;;;;;14.93;8.43;;;9.20;99.90;;;;;;4977996;28;20469;-73
2023/11/11 09:31:50;;;;;;;14.90;8.60;;;9.20;99.90;;;;;;4978063;28;20839;-73
2023/11/11 09:34:18;;;;;;;15.90;8.13;;;9.30;99.90;;;;;;4977069;28;20448;-72
2023/11/11 09:36:45;;;;;;;10.30;7.73;;;9.30;99.90;;;;;;4977853;28;20453;-72
2023/11/11 09:39:13;;;;;;;17.37;8.60;;;9.30;99.90;;;;;;4978110;28;20476;-72
2023/11/11 09:41:41;;;;;;;12.43;7.50;;;9.40;99.90;;;;;;4978055;28;20814;-72
2023/11/11 09:44:08;;;;;;;14.00;7.57;;;9.40;99.90;;;;;;4976479;28;20454;-72
2023/11/11 09:46:39;;;;;;;11.57;6.90;;;9.50;99.90;;;;;;4978149;28;20481;-72
2023/11/11 09:49:09;;;;;;;12.20;7.23;;;9.40;99.90;;;;;;4978253;28;20461;-72
2023/11/11 09:51:40;;;;;;;10.10;7.80;;;9.40;99.90;;;;;;4977703;28;20497;-73
2023/11/11 09:54:09;;;;;;;13.30;8.27;;;9.50;99.90;;;;;;4977888;28;20433;-72
2023/11/11 09:56:37;;;;;;;11.30;7.57;;;9.50;99.90;;;;;;4976938;28;20453;-72
2023/11/11 09:59:05;;;;;;;11.27;8.03;;;9.60;99.90;;;;;;4977268;28;20469;-72
2023/11/11 10:01:33;;;;;;;13.10;8.90;;;9.70;99.90;;;;;;4977556;28;20449;-72
2023/11/11 10:04:00;;;;;;;13.50;7.60;;;9.80;99.90;;;;;;4976118;28;20548;-73
2023/11/11 10:06:27;;;;;;;10.97;7.27;;;9.90;99.90;;;;;;4977319;28;20458;-72
2023/11/11 10:08:56;;;;;;;10.53;6.33;;;10.00;99.90;;;;;;4975612;28;20466;-72
2023/11/11 10:11:23;;;;;;;11.60;7.70;;;9.90;99.90;;;;;;4976610;28;20445;-72
2023/11/11 10:13:53;;;;;;;12.80;8.07;;;9.90;99.90;;;;;;4977179;28;20830;-72
2023/11/11 10:16:21;;;;;;;12.60;7.30;;;9.90;99.90;;;;;;4976945;28;20430;-73
2023/11/11 10:18:50;;;;;;;9.80;6.80;;;10.00;99.90;;;;;;4987031;28;20504;-72
2023/11/11 10:21:19;;;;;;;15.90;7.03;;;10.10;99.90;;;;;;4981169;28;20453;-72
2023/11/11 10:23:47;;;;;;;13.53;6.80;;;10.10;99.90;;;;;;4979363;28;20536;-72
2023/11/11 10:26:20;;;;;;;13.73;7.90;;;10.30;99.90;;;;;;4977414;28;20445;-72
2023/11/11 10:28:48;;;;;;;10.00;5.60;;;10.20;99.90;;;;;;4978122;28;20446;-72
2023/11/11 10:31:15;;;;;;;9.60;6.37;;;10.30;99.70;;;;;;4979555;28;20445;-72
2023/11/11 10:33:43;;;;;;;12.33;6.03;;;10.30;99.90;;;;;;4978403;28;20490;-72
2023/11/11 10:36:11;;;;;;;11.90;7.43;;;10.40;99.80;;;;;;4976535;28;20879;-72
2023/11/11 10:38:41;;;;;;;15.70;7.10;;;10.60;99.80;;;;;;4976827;28;20882;-72
2023/11/11 10:41:07;;;;;;;11.53;6.27;;;10.70;98.70;;;;;;4976484;28;20551;-72
2023/11/11 10:43:36;;;;;;;17.30;7.70;;;10.90;98.90;;;;;;4977421;28;20441;-72
2023/11/11 10:46:03;;;;;;;7.37;5.93;;;11.00;97.80;;;;;;4976997;28;20500;-72
2023/11/11 10:48:30;;;;;;;9.03;5.27;;;11.20;97.30;;;;;;4974849;28;21053;-71
2023/11/11 10:50:57;;;;;;;8.50;4.87;;;11.60;96.50;;;;;;4976495;28;20841;-72
2023/11/11 10:53:27;;;;;;;8.37;5.57;;;11.80;95.60;;;;;;4975938;28;20495;-72
2023/11/11 10:55:55;;;;;;;8.53;4.63;;;12.20;95.30;;;;;;4976624;28;20526;-73
2023/11/11 10:58:22;;;;;;;8.33;4.40;;;12.50;93.80;;;;;;4975682;28;20449;-73
2023/11/11 11:00:51;;;;;;;6.00;4.20;;;12.70;94.20;;;;;;4975773;28;20970;-72
2023/11/11 11:03:20;;;;;;;10.27;5.07;;;13.20;93.50;;;;;;4975805;28;20940;-73
2023/11/11 11:05:55;;;;;;;7.03;4.87;;;13.40;92.10;;;;;;4976255;28;20448;-72
2023/11/11 11:08:31;;;;;;;7.93;4.57;;;13.60;91.20;;;;;;4976341;28;20433;-72
2023/11/11 11:11:12;;;;;;;6.00;4.10;;;13.70;90.30;;;;;;4975984;28;20874;-72
2023/11/11 11:13:40;;;;;;;7.43;4.20;;;13.80;91.10;;;;;;4975665;28;20465;-72
2023/11/11 11:16:16;;;;;;;5.27;4.77;;;13.90;90.80;;;;;;4975875;28;20460;-73
2023/11/11 11:18:43;;;;;;;13.63;4.37;;;14.00;89.70;;;;;;4974359;28;20421;-72
2023/11/11 11:21:11;;;;;;;10.13;3.80;;;13.90;85.80;;;;;;4975416;28;20825;-73
2023/11/11 11:23:38;;;;;;;8.17;4.20;;;13.90;86.30;;;;;;4958686;28;20839;-72
2023/11/11 11:26:05;;;;;;;7.73;4.10;;;13.70;87.10;;;;;;4975826;28;20445;-73
2023/11/11 11:28:32;;;;;;;7.90;3.60;;;13.40;87.70;;;;;;4975654;28;20450;-72
2023/11/11 11:31:02;;;;;;;7.87;3.90;;;13.10;88.70;;;;;;4975599;28;20949;-73
2023/11/11 11:33:32;;;;;;;7.67;4.30;;;12.80;90.80;;;;;;4975502;28;20473;-72
2023/11/11 11:36:01;;;;;;;13.60;4.27;;;12.70;91.80;;;;;;4974354;28;20450;-73
2023/11/11 11:38:29;;;;;;;6.00;4.10;;;12.60;92.00;;;;;;4975351;28;20441;-73
2023/11/11 11:41:10;;;;;;;5.87;3.23;;;12.50;92.10;;;;;;4974849;28;20449;-72
2023/11/11 11:43:39;;;;;;;9.47;4.10;;;12.30;92.60;;;;;;4975482;28;20460;-72
2023/11/11 11:46:06;;;;;;;6.20;4.33;;;11.90;92.50;;;;;;4975498;28;20824;-73
2023/11/11 11:48:37;;;;;;;5.80;3.70;;;12.00;93.20;;;;;;4975137;28;20455;-72
2023/11/11 11:51:09;;;;;;;7.17;3.70;;;11.90;93.60;;;;;;4975079;28;20908;-72
2023/11/11 11:53:37;;;;;;;6.10;4.97;;;12.00;93.60;;;;;;4973495;28;20516;-73
2023/11/11 11:56:06;;;;;;;6.97;3.77;;;12.00;93.40;;;;;;4974984;28;20445;-72
2023/11/11 11:58:45;;;;;;;6.60;3.90;;;11.90;93.40;;;;;;4974372;28;20950;-71
2023/11/11 12:01:12;;;;;;;7.23;3.83;;;11.80;93.80;;;;;;4975173;28;20496;-72
2023/11/11 12:03:40;;;;;;;12.73;4.13;;;11.80;93.70;;;;;;4974831;28;20461;-73
2023/11/11 12:06:07;;;;;;;5.33;3.50;;;11.80;94.20;;;;;;4974436;28;21017;-73
2023/11/11 12:08:35;;;;;;;8.93;3.57;;;11.60;94.10;;;;;;4975209;28;20452;-72
2023/11/11 12:11:02;;;;;;;7.27;3.10;;;11.50;94.70;;;;;;4975376;28;20487;-73
2023/11/11 12:13:37;;;;;;;7.67;3.60;;;11.40;94.50;;;;;;4973775;28;20484;-72
2023/11/11 12:16:05;;;;;;;5.67;2.97;;;11.20;95.10;;;;;;4974889;28;20433;-72
2023/11/11 12:18:33;;;;;;;6.50;4.07;;;11.10;95.10;;;;;;4973458;28;20460;-71
2023/11/11 12:21:01;;;;;;;6.37;3.40;;;11.20;95.30;;;;;;4975120;28;20456;-73
2023/11/11 12:23:29;;;;;;;2.97;2.30;;;11.30;95.40;;;;;;4973447;28;20468;-72
2023/11/11 12:25:56;;;;;;;4.40;2.93;;;11.40;94.50;;;;;;4974640;28;20445;-72
2023/11/11 12:28:23;;;;;;;4.03;3.00;;;11.40;94.20;;;;;;4974397;28;20818;-72
2023/11/11 12:31:03;;;;;;;7.23;3.20;;;11.40;94.40;;;;;;4980005;28;20468;-71
2023/11/11 12:33:30;;;;;;;3.30;3.00;;;11.40;94.70;;;;;;4982134;28;20552;-72
2023/11/11 12:35:57;;;;;;;5.00;3.63;;;11.40;94.10;;;;;;4979873;28;20460;-72
2023/11/11 12:38:28;;;;;;;8.13;3.17;;;11.50;94.00;;;;;;4982072;28;20938;-72
2023/11/11 12:40:58;;;;;;;6.07;3.07;;;11.60;94.10;;;;;;4981263;28;20457;-72
2023/11/11 12:43:26;;;;;;;4.23;2.40;;;11.60;94.00;;;;;;4980976;28;20461;-72
2023/11/11 12:45:54;;;;;;;7.27;2.17;;;11.60;93.40;;;;;;4981105;28;20480;-72